Penelope, Texas
Current Conditions -  °F | °C
As of 9:55 AM on Saturday 25 Oct 2014 (Local Time) from KCNW Reporting Station
Clear Clear  
Wind Chill: 68°   Ceiling: Unl
Heat Index: 68°   Visibility: 10mi
Dew Point: 61°   Wind: 6mph
Humidity: 78%   Direction: 170°S
Pressure: 30.19"   Gusts: NA
Location:  31.86°N, 96.93°W
Report Text: KCNW 251455Z 17005KT 10SM SKC 20/16 A3019
Loading
Personal Weather Stations






























Interactive Weather Map
Tropical Storm Tracking
New forecast layout! Learn more

10-Day Weather Forecast

Advertisements
Track Severe Weather on mobile